Time;durP1;ratioP1;P1;durP2;ratioP2;P2;SDS_P1;SDS_P2;PMS_P1;PMS_P2;Temp;Humidity;BMP_temperature;BMP_pressure;BME280_temperature;BME280_humidity;BME280_pressure;Samples;Min_cycle;Max_cycle;Signal;HPM_P1;HPM_P2
2023/12/22 00:01:01;;;;;;;2.20;1.60;;;7.30;1.00;;;;;;5096926;28;20191;-42
2023/12/22 00:03:27;;;;;;;4.63;1.40;;;7.30;1.00;;;;;;5096509;28;20212;-43
2023/12/22 00:05:53;;;;;;;4.17;1.50;;;7.30;1.00;;;;;;5097690;28;20176;-43
2023/12/22 00:08:18;;;;;;;4.70;1.30;;;7.20;1.00;;;;;;5096375;28;20177;-45
2023/12/22 00:10:44;;;;;;;11.43;1.83;;;7.20;1.00;;;;;;5096528;28;20188;-41
2023/12/22 00:13:09;;;;;;;4.27;1.77;;;7.20;99.90;;;;;;5096923;28;20212;-43
2023/12/22 00:15:35;;;;;;;5.00;1.77;;;7.30;99.90;;;;;;5095806;28;20191;-41
2023/12/22 00:18:02;;;;;;;4.77;1.63;;;7.30;99.90;;;;;;5093428;28;20485;-44
2023/12/22 00:20:28;;;;;;;8.70;1.70;;;7.30;99.90;;;;;;5096077;28;20241;-42
2023/12/22 00:22:53;;;;;;;3.83;2.40;;;7.40;36.10;;;;;;5094730;28;20875;-45
2023/12/22 00:25:19;;;;;;;5.13;1.70;;;7.30;99.90;;;;;;5095610;28;20184;-41
2023/12/22 00:27:44;;;;;;;7.10;1.53;;;7.40;97.20;;;;;;5095921;28;20230;-42
2023/12/22 00:30:11;;;;;;;3.37;1.67;;;7.30;20.30;;;;;;5096166;28;20307;-44
2023/12/22 00:32:36;;;;;;;2.17;1.20;;;7.30;19.90;;;;;;5094828;28;20226;-43
2023/12/22 00:35:05;;;;;;;6.70;1.70;;;7.30;1.00;;;;;;5094562;28;20422;-41
2023/12/22 00:37:31;;;;;;;7.10;1.93;;;7.30;1.00;;;;;;5094707;28;20195;-42
2023/12/22 00:39:56;;;;;;;3.00;1.77;;;7.30;1.00;;;;;;5076475;28;20434;-42
2023/12/22 00:42:22;;;;;;;6.80;2.33;;;7.30;1.00;;;;;;5091946;28;20207;-42
2023/12/22 00:44:48;;;;;;;5.77;1.43;;;7.30;1.00;;;;;;5093695;28;20338;-42
2023/12/22 00:47:13;;;;;;;8.13;1.93;;;7.40;1.00;;;;;;5095331;28;20180;-42
2023/12/22 00:49:39;;;;;;;6.13;2.33;;;7.40;1.00;;;;;;5096288;28;20176;-42
2023/12/22 00:52:05;;;;;;;4.47;0.97;;;7.40;99.90;;;;;;5095793;28;20176;-41
2023/12/22 00:54:31;;;;;;;5.60;2.00;;;7.40;10.40;;;;;;5096262;28;20188;-44
2023/12/22 00:56:57;;;;;;;2.20;1.20;;;7.40;99.90;;;;;;5097015;28;20806;-45
2023/12/22 00:59:24;;;;;;;3.70;1.53;;;7.40;25.80;;;;;;5095578;28;20438;-44
2023/12/22 01:01:49;;;;;;;5.90;1.80;;;7.40;37.40;;;;;;5096536;28;20565;-44
2023/12/22 01:04:15;;;;;;;4.97;1.77;;;7.40;1.00;;;;;;5095113;28;20767;-42
2023/12/22 01:06:41;;;;;;;3.73;1.70;;;7.40;1.00;;;;;;5096793;28;20173;-44
2023/12/22 01:09:06;;;;;;;7.73;1.77;;;7.40;1.00;;;;;;5096412;28;20230;-43
2023/12/22 01:11:32;;;;;;;5.53;1.60;;;7.40;1.00;;;;;;5095791;28;20472;-42
2023/12/22 01:13:58;;;;;;;3.10;1.67;;;7.40;1.00;;;;;;5095162;28;20192;-45
2023/12/22 01:16:23;;;;;;;4.87;1.50;;;7.40;1.00;;;;;;5095788;28;20839;-44
2023/12/22 01:18:50;;;;;;;8.77;2.10;;;7.40;1.00;;;;;;5095870;28;20184;-46
2023/12/22 01:21:16;;;;;;;4.00;1.97;;;7.40;1.00;;;;;;5095259;28;20207;-44
2023/12/22 01:23:42;;;;;;;5.20;1.70;;;7.40;1.00;;;;;;5094474;28;20511;-43
2023/12/22 01:26:07;;;;;;;9.07;1.50;;;7.40;1.00;;;;;;5094422;28;20723;-42
2023/12/22 01:28:36;;;;;;;5.13;1.50;;;7.30;1.00;;;;;;5094648;28;20172;-41
2023/12/22 01:31:02;;;;;;;3.57;1.80;;;7.30;1.00;;;;;;5095103;28;20244;-42
2023/12/22 01:33:29;;;;;;;2.37;1.03;;;7.20;1.00;;;;;;5093733;28;20418;-42
2023/12/22 01:35:54;;;;;;;3.43;0.80;;;7.20;99.90;;;;;;5097286;28;20960;-44
2023/12/22 01:38:20;;;;;;;3.77;1.00;;;7.30;99.90;;;;;;5096343;28;20494;-41
2023/12/22 01:40:46;;;;;;;2.80;0.80;;;7.30;99.90;;;;;;5097464;28;20369;-41
2023/12/22 01:43:13;;;;;;;6.37;1.13;;;7.20;99.90;;;;;;5096450;28;20236;-41
2023/12/22 01:45:38;;;;;;;3.27;0.87;;;7.50;1.00;;;;;;5097569;28;20192;-42
2023/12/22 01:48:04;;;;;;;2.87;0.77;;;7.70;99.90;;;;;;5097131;28;20454;-41
2023/12/22 01:50:30;;;;;;;1.90;0.70;;;7.60;1.00;;;;;;5096892;28;20188;-42
2023/12/22 01:52:56;;;;;;;1.50;0.67;;;7.50;1.00;;;;;;5098489;28;20434;-43
2023/12/22 01:55:21;;;;;;;2.40;1.10;;;7.30;99.90;;;;;;5099377;28;20261;-44
2023/12/22 01:57:47;;;;;;;1.73;0.97;;;7.20;97.00;;;;;;5097931;28;20183;-41
2023/12/22 02:00:14;;;;;;;4.80;1.20;;;7.20;58.20;;;;;;5097314;28;20847;-45
2023/12/22 02:02:42;;;;;;;2.13;0.90;;;7.20;99.90;;;;;;5096091;28;20469;-46
2023/12/22 02:05:11;;;;;;;3.10;0.90;;;7.20;1.00;;;;;;5098009;28;20690;-45
2023/12/22 02:07:39;;;;;;;1.63;0.80;;;7.20;45.00;;;;;;5098580;28;20510;-43
2023/12/22 02:10:09;;;;;;;3.03;1.53;;;7.20;1.00;;;;;;5100037;28;20422;-44
2023/12/22 02:12:36;;;;;;;1.40;0.80;;;7.20;99.90;;;;;;5098193;28;20433;-44
2023/12/22 02:15:03;;;;;;;2.50;1.30;;;7.20;94.80;;;;;;5099730;28;20432;-45
2023/12/22 02:17:53;;;;;;;1.20;0.70;;;7.10;99.90;;;;;;5099813;28;20429;-43
2023/12/22 02:20:19;;;;;;;1.50;0.67;;;7.20;99.90;;;;;;5098700;28;20832;-43
2023/12/22 02:22:45;;;;;;;1.17;0.70;;;7.10;1.00;;;;;;5099030;28;20481;-45
2023/12/22 02:25:11;;;;;;;3.60;1.17;;;7.10;16.90;;;;;;5099564;28;20720;-48
2023/12/22 02:27:45;;;;;;;3.97;1.70;;;7.10;1.00;;;;;;5098706;28;20168;-42
2023/12/22 02:30:26;;;;;;;1.50;1.00;;;7.10;1.00;;;;;;5098700;28;20196;-44
2023/12/22 02:32:56;;;;;;;3.33;1.33;;;7.10;20.80;;;;;;5099398;28;20520;-46
2023/12/22 02:35:24;;;;;;;2.80;1.27;;;7.10;84.40;;;;;;5097800;28;20430;-42
2023/12/22 02:37:50;;;;;;;2.13;1.10;;;7.10;99.90;;;;;;5098006;28;21083;-43
2023/12/22 02:40:17;;;;;;;4.20;1.50;;;7.10;99.90;;;;;;5098088;28;20437;-43
2023/12/22 02:42:42;;;;;;;5.10;1.80;;;7.10;99.90;;;;;;5097447;28;20490;-43
2023/12/22 02:45:14;;;;;;;4.37;1.60;;;7.20;1.00;;;;;;5098029;28;20430;-44
2023/12/22 02:47:40;;;;;;;2.23;1.40;;;7.10;30.10;;;;;;5098357;28;20206;-45
2023/12/22 02:50:07;;;;;;;3.00;2.40;;;7.20;53.70;;;;;;5098312;28;20531;-43
2023/12/22 02:52:33;;;;;;;3.73;1.70;;;7.10;99.90;;;;;;5097525;28;20442;-44
2023/12/22 02:54:58;;;;;;;3.80;1.60;;;7.10;58.90;;;;;;5096285;28;20429;-46
2023/12/22 02:57:24;;;;;;;4.73;1.17;;;7.10;99.90;;;;;;5097055;28;20185;-43
2023/12/22 02:59:50;;;;;;;3.90;1.57;;;7.10;99.90;;;;;;5094898;28;20320;-43
2023/12/22 03:02:15;;;;;;;3.00;1.80;;;7.10;99.90;;;;;;5097646;28;20552;-41
2023/12/22 03:04:41;;;;;;;2.90;1.20;;;7.10;99.90;;;;;;5096744;28;20203;-44
2023/12/22 03:07:06;;;;;;;5.30;1.40;;;7.10;50.90;;;;;;5097604;28;20275;-43
2023/12/22 03:09:34;;;;;;;2.83;1.60;;;7.20;55.90;;;;;;5098256;28;20180;-44
2023/12/22 03:12:01;;;;;;;5.00;1.30;;;7.10;97.60;;;;;;5098602;28;20249;-46
2023/12/22 03:14:32;;;;;;;2.87;1.00;;;7.10;1.00;;;;;;5097716;28;20537;-43
2023/12/22 03:17:01;;;;;;;6.40;1.57;;;7.10;1.00;;;;;;5098561;28;20434;-44
2023/12/22 03:19:27;;;;;;;2.30;1.00;;;7.20;99.90;;;;;;5097991;28;20431;-42
2023/12/22 03:21:53;;;;;;;3.30;1.10;;;7.20;99.90;;;;;;5097676;28;20481;-44
2023/12/22 03:24:19;;;;;;;4.17;1.63;;;7.20;97.90;;;;;;5097805;28;20188;-42
2023/12/22 03:26:48;;;;;;;5.50;1.47;;;7.20;1.00;;;;;;5097419;28;20521;-48
2023/12/22 03:29:14;;;;;;;5.63;1.60;;;7.20;1.00;;;;;;5096995;28;20423;-43
2023/12/22 03:31:40;;;;;;;6.37;1.00;;;7.20;1.00;;;;;;5098259;28;20851;-44
2023/12/22 03:34:05;;;;;;;2.17;0.90;;;7.10;99.90;;;;;;5097773;28;20447;-43
2023/12/22 03:36:31;;;;;;;4.47;1.43;;;7.10;99.90;;;;;;5096196;28;20470;-42
2023/12/22 03:39:46;;;;;;;2.80;1.40;;;7.20;1.00;;;;;;5097895;28;20341;-43
2023/12/22 03:42:12;;;;;;;1.63;1.20;;;7.20;1.00;;;;;;5096562;28;20212;-42
2023/12/22 03:44:37;;;;;;;3.40;1.40;;;7.20;1.00;;;;;;5096933;28;20493;-43
2023/12/22 03:47:03;;;;;;;3.00;1.30;;;7.10;1.00;;;;;;5096116;28;20181;-43
2023/12/22 03:49:29;;;;;;;5.77;1.40;;;7.10;76.00;;;;;;5095925;28;20291;-43
2023/12/22 03:51:54;;;;;;;2.23;0.93;;;7.10;99.90;;;;;;5094868;28;20181;-44
2023/12/22 03:54:20;;;;;;;3.50;1.40;;;7.10;99.90;;;;;;5094356;28;20193;-43
2023/12/22 03:56:45;;;;;;;12.60;1.77;;;7.10;99.90;;;;;;5096508;28;20546;-44
2023/12/22 03:59:11;;;;;;;4.27;2.00;;;7.10;99.90;;;;;;5093951;28;20195;-42
2023/12/22 04:01:37;;;;;;;3.33;1.63;;;7.10;1.00;;;;;;5097332;28;20173;-44
2023/12/22 04:04:02;;;;;;;5.13;1.80;;;7.10;1.00;;;;;;5096554;28;20204;-42
2023/12/22 04:06:28;;;;;;;3.03;1.27;;;7.10;1.00;;;;;;5097438;28;20184;-42
2023/12/22 04:08:54;;;;;;;5.40;1.77;;;7.00;1.00;;;;;;5096975;28;20241;-46
2023/12/22 04:11:19;;;;;;;5.30;1.73;;;7.10;1.00;;;;;;5096958;28;20847;-42
2023/12/22 04:13:45;;;;;;;4.30;1.97;;;7.10;1.00;;;;;;5096775;28;20181;-43
2023/12/22 04:16:11;;;;;;;2.80;1.50;;;7.10;99.90;;;;;;5095387;28;20208;-45
2023/12/22 04:18:36;;;;;;;8.53;3.60;;;7.10;1.00;;;;;;5096902;28;20210;-44
2023/12/22 04:21:02;;;;;;;8.50;1.60;;;7.10;1.00;;;;;;5097084;28;20179;-43
2023/12/22 04:23:28;;;;;;;3.73;1.50;;;7.10;1.00;;;;;;5097103;28;20544;-44
2023/12/22 04:25:53;;;;;;;4.83;1.90;;;7.20;99.90;;;;;;5097378;28;20168;-44
2023/12/22 04:28:19;;;;;;;5.83;1.70;;;7.10;1.00;;;;;;5096516;28;20176;-44
2023/12/22 04:30:44;;;;;;;3.87;1.87;;;7.00;1.00;;;;;;5098094;28;20227;-43
2023/12/22 04:33:10;;;;;;;5.70;1.50;;;6.80;99.90;;;;;;5096488;28;20184;-44
2023/12/22 04:35:35;;;;;;;10.10;2.73;;;6.70;1.00;;;;;;5095411;28;20208;-44
2023/12/22 04:38:01;;;;;;;5.60;1.50;;;6.60;1.00;;;;;;5093849;28;20172;-45
2023/12/22 04:40:28;;;;;;;8.43;1.60;;;6.50;96.80;;;;;;5094777;28;20591;-44
2023/12/22 04:42:53;;;;;;;4.77;1.57;;;6.50;99.90;;;;;;5094603;28;20562;-43
2023/12/22 04:45:19;;;;;;;3.43;1.67;;;6.40;97.10;;;;;;5095476;28;20422;-44
2023/12/22 04:47:44;;;;;;;3.83;1.33;;;6.40;99.90;;;;;;5095656;28;20164;-43
2023/12/22 04:50:10;;;;;;;4.17;1.43;;;6.40;99.90;;;;;;5097148;28;20629;-44
2023/12/22 04:52:35;;;;;;;3.30;1.33;;;6.30;99.90;;;;;;5096527;28;20176;-43
2023/12/22 04:55:01;;;;;;;4.97;2.00;;;6.30;99.90;;;;;;5095209;28;20215;-42
2023/12/22 04:57:27;;;;;;;8.93;1.77;;;6.40;99.90;;;;;;5095036;28;20188;-42
2023/12/22 04:59:52;;;;;;;4.80;2.13;;;6.40;59.10;;;;;;5095646;28;20183;-43
2023/12/22 05:02:18;;;;;;;6.90;1.70;;;6.40;1.00;;;;;;5096175;28;20208;-47
2023/12/22 05:04:43;;;;;;;2.80;1.30;;;6.40;1.00;;;;;;5094216;28;20247;-47
2023/12/22 05:07:10;;;;;;;5.13;1.60;;;6.50;1.00;;;;;;5094260;28;20176;-42
2023/12/22 05:09:37;;;;;;;6.80;1.40;;;6.50;1.00;;;;;;5093575;28;20529;-42
2023/12/22 05:12:03;;;;;;;4.83;1.83;;;6.60;99.90;;;;;;5091377;28;20435;-43
2023/12/22 05:14:28;;;;;;;4.07;2.23;;;6.60;99.90;;;;;;5094069;28;20517;-43
2023/12/22 05:16:55;;;;;;;5.47;2.20;;;6.60;99.90;;;;;;5094773;28;20974;-44
2023/12/22 05:19:21;;;;;;;5.63;1.60;;;6.60;99.90;;;;;;5095079;28;20200;-46
2023/12/22 05:21:48;;;;;;;8.70;2.87;;;6.60;99.90;;;;;;5094390;28;20519;-45
2023/12/22 05:24:14;;;;;;;5.80;2.60;;;6.60;99.90;;;;;;5094199;28;20590;-41
2023/12/22 05:26:39;;;;;;;5.50;2.23;;;6.60;99.90;;;;;;5093271;28;20443;-46
2023/12/22 05:29:05;;;;;;;9.60;3.00;;;6.60;77.80;;;;;;5092912;28;20299;-43
2023/12/22 05:31:32;;;;;;;5.30;2.63;;;6.60;49.70;;;;;;5091874;28;20188;-42
2023/12/22 05:33:58;;;;;;;11.50;1.90;;;6.70;1.00;;;;;;5091240;28;20270;-43
2023/12/22 05:36:25;;;;;;;6.47;1.87;;;6.70;1.00;;;;;;5093732;28;20525;-44
2023/12/22 05:38:51;;;;;;;12.00;3.10;;;6.70;7.10;;;;;;5093660;28;20411;-43
2023/12/22 05:41:16;;;;;;;7.97;2.33;;;6.70;1.00;;;;;;5094254;28;20491;-42
2023/12/22 05:43:42;;;;;;;4.50;2.23;;;6.70;1.00;;;;;;5094538;28;20494;-45
2023/12/22 05:46:09;;;;;;;12.57;2.80;;;6.80;99.90;;;;;;5095870;28;20173;-43
2023/12/22 05:48:35;;;;;;;12.77;3.10;;;6.90;99.90;;;;;;5106814;28;20469;-44
2023/12/22 05:51:03;;;;;;;8.13;2.33;;;6.90;1.00;;;;;;5115591;28;20779;-46
2023/12/22 05:53:28;;;;;;;7.00;2.00;;;6.90;99.90;;;;;;5115210;28;20528;-43
2023/12/22 05:55:54;;;;;;;7.87;1.83;;;7.00;1.00;;;;;;5113580;28;20425;-47
2023/12/22 05:58:19;;;;;;;9.63;2.37;;;7.00;1.00;;;;;;5113554;28;20180;-42
2023/12/22 06:00:45;;;;;;;11.60;2.73;;;7.00;99.90;;;;;;5112839;28;20187;-43
2023/12/22 06:03:10;;;;;;;8.70;2.33;;;6.90;99.90;;;;;;5114865;28;20218;-43
2023/12/22 06:05:36;;;;;;;5.70;1.90;;;6.90;1.00;;;;;;5115709;28;20172;-43
2023/12/22 06:08:02;;;;;;;8.13;2.23;;;6.90;1.00;;;;;;5115699;28;20557;-44
2023/12/22 06:10:28;;;;;;;4.50;2.13;;;6.80;46.70;;;;;;5115149;28;20187;-44
2023/12/22 06:12:53;;;;;;;10.20;2.63;;;6.80;99.90;;;;;;5114619;28;20421;-46
2023/12/22 06:15:19;;;;;;;6.93;2.47;;;6.70;99.90;;;;;;5113478;28;20254;-43
2023/12/22 06:17:44;;;;;;;7.47;2.20;;;6.60;99.90;;;;;;5113366;28;20183;-43
2023/12/22 06:20:10;;;;;;;6.80;1.80;;;6.70;99.90;;;;;;5114554;28;20190;-41
2023/12/22 06:22:36;;;;;;;7.23;2.00;;;6.70;1.00;;;;;;5116750;28;20423;-47
2023/12/22 06:25:07;;;;;;;12.33;2.33;;;6.80;1.00;;;;;;5114842;28;20183;-44
2023/12/22 06:27:33;;;;;;;7.33;2.07;;;6.80;1.00;;;;;;5114745;28;20172;-45
2023/12/22 06:29:58;;;;;;;4.60;2.20;;;6.80;1.00;;;;;;5114603;28;20730;-43
2023/12/22 06:32:24;;;;;;;9.33;2.40;;;6.80;1.00;;;;;;5115194;28;20426;-44
2023/12/22 06:34:49;;;;;;;6.67;2.17;;;6.70;99.90;;;;;;5116834;28;20195;-45
2023/12/22 06:37:15;;;;;;;5.53;2.27;;;6.70;99.90;;;;;;5117120;28;20240;-44
2023/12/22 06:39:40;;;;;;;4.70;2.57;;;6.70;99.90;;;;;;5118009;28;20168;-43
2023/12/22 06:42:10;;;;;;;4.50;1.97;;;6.70;99.90;;;;;;5118953;28;20597;-44
2023/12/22 06:44:41;;;;;;;6.93;2.00;;;6.70;99.90;;;;;;5118946;28;20172;-42
2023/12/22 06:47:06;;;;;;;8.03;2.83;;;6.70;99.90;;;;;;5118759;28;20516;-43
2023/12/22 06:49:32;;;;;;;5.13;1.60;;;6.60;99.90;;;;;;5117295;28;20703;-44
2023/12/22 06:51:57;;;;;;;5.80;2.10;;;6.60;1.00;;;;;;5117229;28;20187;-42
2023/12/22 06:54:23;;;;;;;7.03;2.20;;;6.50;1.00;;;;;;5117749;28;20473;-42
2023/12/22 06:56:48;;;;;;;8.80;2.53;;;6.40;15.50;;;;;;5118634;28;20179;-44
2023/12/22 06:59:14;;;;;;;6.50;2.00;;;6.30;99.90;;;;;;5117652;28;20180;-44
2023/12/22 07:01:40;;;;;;;8.07;2.57;;;6.20;99.90;;;;;;5117680;28;20236;-44
2023/12/22 07:04:06;;;;;;;9.37;3.00;;;6.20;99.90;;;;;;5116516;28;20432;-45
2023/12/22 07:06:33;;;;;;;7.20;2.40;;;6.30;99.90;;;;;;5117104;28;20176;-42
2023/12/22 07:09:19;;;;;;;6.03;2.27;;;6.30;99.90;;;;;;5117936;28;20429;-46
2023/12/22 07:11:45;;;;;;;12.10;2.83;;;6.30;96.50;;;;;;5117489;28;20426;-45
2023/12/22 07:14:11;;;;;;;10.23;2.20;;;6.40;43.40;;;;;;5117123;28;20417;-42
2023/12/22 07:16:37;;;;;;;10.70;3.10;;;6.40;22.20;;;;;;5117586;28;20494;-43
2023/12/22 07:19:04;;;;;;;8.20;2.30;;;6.30;63.50;;;;;;5117832;28;20187;-43
2023/12/22 07:21:29;;;;;;;7.20;2.20;;;6.30;91.40;;;;;;5117598;28;20465;-42
2023/12/22 07:23:55;;;;;;;9.23;2.83;;;6.30;1.00;;;;;;5116756;28;20776;-42
2023/12/22 07:26:21;;;;;;;8.40;2.57;;;6.40;1.00;;;;;;5116361;28;20576;-44
2023/12/22 07:28:47;;;;;;;8.73;2.50;;;6.40;1.00;;;;;;5117974;27;20423;-43
2023/12/22 07:31:13;;;;;;;7.03;2.43;;;6.40;4.60;;;;;;5118105;28;20772;-44
2023/12/22 07:33:40;;;;;;;6.50;2.10;;;6.30;55.30;;;;;;5117291;28;20447;-46
2023/12/22 07:36:06;;;;;;;4.73;2.60;;;6.40;62.30;;;;;;5116594;28;20730;-48
2023/12/22 07:38:31;;;;;;;6.53;2.43;;;6.40;93.20;;;;;;5116294;28;20440;-47
2023/12/22 07:40:57;;;;;;;6.90;2.10;;;6.30;99.90;;;;;;5116322;28;20977;-42
2023/12/22 07:43:23;;;;;;;6.13;2.10;;;6.40;99.90;;;;;;5115373;28;20306;-47
2023/12/22 07:45:50;;;;;;;7.63;1.60;;;6.30;99.90;;;;;;5116075;28;20262;-46
2023/12/22 07:48:16;;;;;;;6.17;1.93;;;6.30;99.90;;;;;;5115435;28;20632;-42
2023/12/22 07:50:42;;;;;;;7.50;2.13;;;6.20;99.90;;;;;;5115011;28;20501;-44
2023/12/22 07:53:08;;;;;;;5.93;2.30;;;6.30;99.90;;;;;;5115032;28;20268;-42
2023/12/22 07:55:34;;;;;;;10.00;2.10;;;6.20;99.90;;;;;;5114005;28;20428;-41
2023/12/22 07:57:59;;;;;;;5.23;2.10;;;6.20;99.90;;;;;;5115768;28;20429;-41
2023/12/22 08:00:25;;;;;;;7.27;2.47;;;6.10;99.90;;;;;;5115731;28;20522;-44
2023/12/22 08:02:52;;;;;;;10.00;2.67;;;6.10;99.90;;;;;;5114884;28;20283;-43
2023/12/22 08:05:18;;;;;;;8.70;3.00;;;6.10;99.90;;;;;;5114364;28;20240;-46
2023/12/22 08:07:44;;;;;;;10.10;2.57;;;6.10;99.90;;;;;;5115528;27;20808;-46
2023/12/22 08:10:10;;;;;;;7.87;2.97;;;6.20;99.90;;;;;;5114694;28;20441;-44
2023/12/22 08:12:35;;;;;;;10.00;3.10;;;6.20;99.90;;;;;;5115875;28;20236;-42
2023/12/22 08:15:01;;;;;;;10.40;2.60;;;6.30;99.90;;;;;;5115511;28;20176;-43
2023/12/22 08:17:27;;;;;;;9.87;2.50;;;6.50;99.90;;;;;;5116306;28;20183;-42
2023/12/22 08:19:53;;;;;;;8.50;2.70;;;6.60;97.20;;;;;;5114483;28;20252;-42
2023/12/22 08:22:18;;;;;;;10.87;2.87;;;6.60;24.90;;;;;;5096413;28;20469;-43
2023/12/22 08:24:45;;;;;;;6.57;3.33;;;6.70;2.60;;;;;;5114313;28;20175;-42
2023/12/22 08:27:10;;;;;;;9.80;3.23;;;6.70;1.00;;;;;;5114150;27;20172;-43
2023/12/22 08:29:36;;;;;;;10.30;2.50;;;6.80;1.00;;;;;;5115017;28;20420;-45
2023/12/22 08:32:01;;;;;;;11.83;3.00;;;6.90;99.90;;;;;;5113299;28;20352;-45
2023/12/22 08:34:27;;;;;;;10.40;3.00;;;6.90;1.00;;;;;;5114260;28;20195;-45
2023/12/22 08:36:53;;;;;;;12.87;3.10;;;6.90;1.00;;;;;;5114255;28;21299;-43
2023/12/22 08:39:19;;;;;;;8.23;2.53;;;6.80;1.00;;;;;;5115137;28;20473;-43
2023/12/22 08:41:45;;;;;;;11.40;3.10;;;6.80;1.00;;;;;;5116582;28;20198;-41
2023/12/22 08:44:11;;;;;;;8.00;2.10;;;6.80;71.70;;;;;;5114608;28;20190;-43
2023/12/22 08:46:36;;;;;;;12.53;3.07;;;6.70;67.00;;;;;;5114660;28;20409;-44
2023/12/22 08:49:02;;;;;;;13.97;2.57;;;6.70;99.90;;;;;;5114702;28;20259;-44
2023/12/22 08:51:28;;;;;;;9.50;2.20;;;6.70;99.90;;;;;;5114535;28;20183;-43
2023/12/22 08:53:55;;;;;;;5.63;2.20;;;6.70;99.90;;;;;;5115571;28;20440;-47
2023/12/22 08:56:23;;;;;;;10.50;2.23;;;6.70;99.90;;;;;;5111972;28;20516;-44
2023/12/22 08:58:51;;;;;;;9.63;2.60;;;6.70;99.90;;;;;;5112944;28;20528;-42
2023/12/22 09:01:18;;;;;;;7.33;2.20;;;6.70;90.80;;;;;;5114513;28;20429;-42
2023/12/22 09:03:47;;;;;;;9.37;2.87;;;6.80;1.00;;;;;;5113527;28;20724;-42
2023/12/22 09:06:21;;;;;;;8.40;2.53;;;6.80;1.00;;;;;;5114072;28;20445;-47
2023/12/22 09:08:47;;;;;;;5.20;1.97;;;6.80;1.00;;;;;;5113226;28;20496;-42
2023/12/22 09:11:15;;;;;;;11.43;3.27;;;6.90;1.00;;;;;;5113329;28;20505;-41
2023/12/22 09:13:41;;;;;;;6.30;2.37;;;6.90;1.00;;;;;;5112842;28;20203;-43
2023/12/22 09:16:07;;;;;;;12.50;3.20;;;6.90;1.00;;;;;;5112052;28;20803;-44
2023/12/22 09:18:33;;;;;;;13.57;3.70;;;6.90;1.00;;;;;;5114412;28;20494;-44
2023/12/22 09:20:59;;;;;;;9.07;2.23;;;6.90;1.00;;;;;;5113847;28;20422;-44
2023/12/22 09:23:25;;;;;;;9.00;3.50;;;7.00;1.00;;;;;;5114481;28;20214;-43
2023/12/22 09:25:50;;;;;;;12.93;4.33;;;7.00;1.00;;;;;;5114264;28;20710;-44
2023/12/22 09:28:16;;;;;;;7.87;3.10;;;7.00;1.00;;;;;;5114736;28;20278;-44
2023/12/22 09:30:41;;;;;;;10.17;2.60;;;7.00;99.90;;;;;;5114134;28;20177;-43
2023/12/22 09:33:10;;;;;;;10.83;3.10;;;7.10;99.90;;;;;;5113181;28;20287;-43
2023/12/22 09:35:36;;;;;;;11.97;2.23;;;7.00;99.90;;;;;;5114432;28;20182;-46
2023/12/22 09:38:02;;;;;;;8.53;2.90;;;7.00;99.90;;;;;;5113587;28;20728;-45
2023/12/22 09:40:28;;;;;;;15.47;3.70;;;7.10;99.90;;;;;;5115039;28;20183;-46
2023/12/22 09:42:54;;;;;;;5.60;2.80;;;7.10;8.20;;;;;;5114281;28;20469;-42
2023/12/22 09:45:21;;;;;;;10.40;3.80;;;7.10;11.00;;;;;;5113354;28;20286;-43
2023/12/22 09:47:48;;;;;;;13.07;2.50;;;7.10;1.00;;;;;;5114579;28;20461;-42
2023/12/22 09:50:15;;;;;;;13.20;3.20;;;7.20;1.00;;;;;;5115957;28;20425;-45
2023/12/22 09:52:43;;;;;;;8.73;3.33;;;7.20;1.00;;;;;;5112535;28;20930;-42
2023/12/22 09:55:09;;;;;;;14.10;3.30;;;7.20;1.00;;;;;;5113924;28;20421;-43
2023/12/22 09:57:36;;;;;;;11.93;3.13;;;7.30;99.90;;;;;;5117578;28;20428;-43
2023/12/22 10:00:06;;;;;;;9.43;3.07;;;7.30;99.90;;;;;;5114395;28;20504;-45
2023/12/22 10:02:33;;;;;;;17.07;3.90;;;7.50;99.90;;;;;;5115988;28;20712;-45
2023/12/22 10:04:59;;;;;;;14.73;3.20;;;7.80;1.00;;;;;;5116565;28;20722;-44
2023/12/22 10:07:25;;;;;;;14.40;3.50;;;8.00;99.90;;;;;;5116110;28;20483;-43
2023/12/22 10:09:53;;;;;;;10.83;3.10;;;7.90;99.90;;;;;;5114168;28;20183;-41
2023/12/22 10:12:19;;;;;;;9.63;3.23;;;7.70;99.90;;;;;;5113853;28;20529;-45
2023/12/22 10:14:46;;;;;;;12.33;3.73;;;7.70;1.00;;;;;;5114952;28;20498;-42
2023/12/22 10:17:12;;;;;;;8.17;2.93;;;7.60;1.00;;;;;;5115059;28;20422;-42
2023/12/22 10:19:39;;;;;;;7.10;3.43;;;7.60;1.00;;;;;;5113683;28;20436;-44
2023/12/22 10:22:04;;;;;;;11.47;2.70;;;7.50;1.00;;;;;;5114747;28;20707;-44
2023/12/22 10:24:47;;;;;;;11.17;4.07;;;7.50;1.00;;;;;;5116605;28;20428;-45
2023/12/22 10:27:13;;;;;;;11.07;4.10;;;7.50;1.00;;;;;;5115670;28;20468;-42
2023/12/22 10:29:39;;;;;;;9.47;2.73;;;7.50;1.00;;;;;;5117161;28;20422;-42
2023/12/22 10:32:06;;;;;;;11.57;4.70;;;7.60;1.00;;;;;;5115833;28;20470;-42
2023/12/22 10:34:32;;;;;;;11.33;3.00;;;7.60;1.00;;;;;;5116248;28;20440;-42
2023/12/22 10:36:59;;;;;;;13.80;3.47;;;7.60;24.50;;;;;;5115564;28;20532;-41
2023/12/22 10:39:32;;;;;;;7.17;2.50;;;7.60;99.90;;;;;;5113822;28;20823;-46
2023/12/22 10:41:58;;;;;;;9.87;2.97;;;7.50;99.90;;;;;;5116155;27;20704;-44
2023/12/22 10:44:25;;;;;;;10.10;3.10;;;7.50;1.00;;;;;;5116760;28;20424;-43
2023/12/22 10:46:51;;;;;;;9.43;2.47;;;7.50;1.00;;;;;;5114646;28;20471;-44
2023/12/22 10:49:16;;;;;;;15.30;3.00;;;7.50;1.00;;;;;;5117692;28;20695;-42
2023/12/22 10:51:42;;;;;;;8.90;2.20;;;7.50;15.80;;;;;;5118149;28;20180;-42
2023/12/22 10:54:08;;;;;;;5.50;2.03;;;7.50;71.00;;;;;;5117703;28;20612;-46
2023/12/22 10:56:34;;;;;;;12.37;2.10;;;7.50;99.90;;;;;;5116421;28;20417;-46
2023/12/22 10:59:01;;;;;;;6.97;1.97;;;7.50;1.00;;;;;;5115046;28;20186;-43
2023/12/22 11:01:33;;;;;;;3.70;1.97;;;7.50;99.90;;;;;;5116388;28;20430;-44
2023/12/22 11:04:02;;;;;;;5.50;1.80;;;7.50;99.90;;;;;;5113546;28;20484;-43
2023/12/22 11:06:29;;;;;;;5.77;1.60;;;7.50;99.90;;;;;;5112621;28;20418;-43
2023/12/22 11:08:57;;;;;;;5.10;1.60;;;7.40;1.00;;;;;;5111483;28;20409;-42
2023/12/22 11:11:33;;;;;;;6.70;2.20;;;7.30;1.00;;;;;;5113598;28;20410;-45
2023/12/22 11:14:00;;;;;;;4.00;2.13;;;7.30;1.00;;;;;;5111425;28;20441;-43
2023/12/22 11:16:27;;;;;;;5.40;1.70;;;7.30;1.00;;;;;;5115871;28;20551;-43
2023/12/22 11:18:54;;;;;;;5.40;1.83;;;7.30;1.00;;;;;;5113520;28;20726;-43
2023/12/22 11:21:22;;;;;;;6.33;2.30;;;7.20;1.00;;;;;;5115039;28;20479;-45
2023/12/22 11:23:51;;;;;;;5.33;1.60;;;7.20;65.20;;;;;;5115391;28;20480;-42
2023/12/22 11:26:18;;;;;;;4.57;1.80;;;7.10;99.90;;;;;;5115183;28;20496;-43
2023/12/22 11:28:45;;;;;;;6.37;2.37;;;7.10;99.90;;;;;;5114590;28;20540;-45
2023/12/22 11:31:12;;;;;;;5.73;1.63;;;7.00;99.90;;;;;;5115385;28;20429;-41
2023/12/22 11:33:42;;;;;;;7.43;2.23;;;6.90;99.90;;;;;;5114667;28;20441;-41
2023/12/22 11:36:08;;;;;;;3.80;2.53;;;6.80;99.90;;;;;;5115205;27;20433;-43
2023/12/22 11:38:34;;;;;;;7.70;3.47;;;6.80;1.00;;;;;;5114426;28;20434;-42
2023/12/22 11:41:00;;;;;;;5.63;3.10;;;6.70;1.00;;;;;;5114240;28;20203;-42
2023/12/22 11:43:26;;;;;;;8.80;6.40;;;6.80;1.00;;;;;;5113610;28;20203;-44
2023/12/22 11:45:51;;;;;;;10.70;6.87;;;6.80;1.00;;;;;;5114240;28;20514;-42
2023/12/22 11:48:18;;;;;;;10.63;5.83;;;6.80;1.00;;;;;;5115430;28;20469;-41
2023/12/22 11:50:44;;;;;;;3.60;2.20;;;6.80;1.00;;;;;;5115663;28;20452;-42
2023/12/22 11:53:23;;;;;;;3.83;1.90;;;6.80;1.00;;;;;;5117363;28;20425;-42
2023/12/22 11:56:08;;;;;;;5.40;2.47;;;6.70;1.00;;;;;;5116522;28;20292;-43
2023/12/22 11:58:43;;;;;;;6.07;1.90;;;6.70;1.00;;;;;;5112163;28;20822;-43
2023/12/22 12:01:09;;;;;;;3.83;1.70;;;6.60;1.00;;;;;;5113556;28;20429;-44
2023/12/22 12:03:47;;;;;;;5.93;1.80;;;6.70;1.00;;;;;;5113190;28;20505;-41
2023/12/22 12:06:13;;;;;;;4.03;1.40;;;6.70;1.00;;;;;;5114353;28;20516;-41
2023/12/22 12:08:39;;;;;;;4.37;1.90;;;6.70;1.00;;;;;;5113639;28;20520;-42
2023/12/22 12:11:06;;;;;;;4.70;1.47;;;6.70;1.00;;;;;;5113277;28;20435;-43
2023/12/22 12:13:32;;;;;;;4.50;1.90;;;6.60;1.00;;;;;;5111726;28;20493;-42
2023/12/22 12:16:02;;;;;;;4.93;2.00;;;6.60;1.00;;;;;;5113142;28;20440;-44
2023/12/22 12:18:28;;;;;;;2.10;1.37;;;6.60;1.00;;;;;;5113443;28;20769;-43
2023/12/22 12:20:54;;;;;;;4.30;1.80;;;6.60;1.00;;;;;;5114261;28;20426;-44
2023/12/22 12:23:21;;;;;;;3.50;1.97;;;6.70;1.00;;;;;;5115930;28;20479;-45
2023/12/22 12:25:47;;;;;;;6.10;2.00;;;6.70;1.00;;;;;;5098858;28;20533;-44
2023/12/22 12:28:13;;;;;;;4.03;1.70;;;6.70;1.00;;;;;;5113242;28;21058;-42
2023/12/22 12:30:40;;;;;;;7.53;3.83;;;6.70;1.00;;;;;;5114846;28;20781;-41
2023/12/22 12:33:11;;;;;;;5.40;2.60;;;6.70;1.00;;;;;;5113785;28;20765;-43
2023/12/22 12:35:38;;;;;;;2.40;1.43;;;6.70;1.00;;;;;;5115849;28;20740;-41
2023/12/22 12:38:04;;;;;;;4.77;1.40;;;6.70;1.00;;;;;;5112684;28;20418;-41
2023/12/22 12:40:32;;;;;;;5.20;1.37;;;6.80;1.00;;;;;;5114101;28;20844;-42
2023/12/22 12:42:57;;;;;;;2.43;0.90;;;6.80;1.00;;;;;;5114230;28;20249;-42
2023/12/22 12:45:23;;;;;;;3.93;1.50;;;6.80;1.00;;;;;;5108875;28;20462;-44
2023/12/22 12:47:59;;;;;;;1.40;1.00;;;6.80;1.00;;;;;;5093715;28;20228;-44
2023/12/22 12:50:26;;;;;;;2.37;0.90;;;6.80;1.00;;;;;;5094041;28;20465;-43
2023/12/22 12:52:53;;;;;;;3.57;2.27;;;6.80;1.00;;;;;;5075394;28;20878;-42
2023/12/22 12:55:22;;;;;;;6.80;4.23;;;6.90;1.00;;;;;;5092765;28;20537;-42
2023/12/22 12:57:52;;;;;;;8.63;5.30;;;6.90;1.00;;;;;;5095380;28;20699;-43